createdAt,value
2023-04-17T00:00:43.638Z,0.60
2023-04-17T00:03:14.625Z,0.70
2023-04-17T00:05:45.927Z,0.70
2023-04-17T00:08:14.012Z,0.60
2023-04-17T00:10:47.117Z,0.60
2023-04-17T00:13:21.613Z,0.60
2023-04-17T00:15:49.502Z,0.60
2023-04-17T00:18:17.271Z,0.65
2023-04-17T00:20:45.159Z,0.65
2023-04-17T00:23:12.983Z,0.60
2023-04-17T00:25:40.937Z,1.40
2023-04-17T00:28:08.595Z,0.80
2023-04-17T00:30:36.393Z,0.73
2023-04-17T00:33:04.094Z,0.85
2023-04-17T00:35:32.206Z,0.60
2023-04-17T00:37:59.689Z,0.77
2023-04-17T00:40:27.237Z,0.60
2023-04-17T00:43:00.996Z,0.70
2023-04-17T00:45:29.602Z,0.80
2023-04-17T00:47:59.627Z,0.68
2023-04-17T00:50:30.122Z,0.60
2023-04-17T00:52:58.505Z,0.80
2023-04-17T00:55:27.796Z,0.60
2023-04-17T00:57:56.982Z,0.70
2023-04-17T01:00:24.936Z,0.60
2023-04-17T01:02:53.070Z,0.73
2023-04-17T01:05:21.100Z,1.02
2023-04-17T01:07:49.104Z,0.98
2023-04-17T01:10:16.964Z,0.90
2023-04-17T01:12:47.028Z,0.80
2023-04-17T01:15:15.614Z,1.05
2023-04-17T01:17:43.378Z,1.17
2023-04-17T01:20:12.291Z,1.02
2023-04-17T01:22:40.058Z,0.90
2023-04-17T01:25:08.546Z,1.48
2023-04-17T01:27:38.787Z,1.38
2023-04-17T01:30:07.299Z,2.17
2023-04-17T01:32:42.141Z,1.20
2023-04-17T01:35:10.563Z,1.55
2023-04-17T01:37:38.926Z,1.10
2023-04-17T01:40:07.451Z,1.10
2023-04-17T01:42:35.828Z,1.05
2023-04-17T01:45:03.921Z,0.90
2023-04-17T01:47:32.104Z,1.30
2023-04-17T01:49:59.870Z,0.98
2023-04-17T01:52:27.654Z,0.85
2023-04-17T01:54:55.400Z,1.25
2023-04-17T01:57:23.289Z,1.17
2023-04-17T01:59:51.377Z,1.08
2023-04-17T02:02:19.316Z,1.75
2023-04-17T02:04:47.248Z,2.05
2023-04-17T02:07:14.979Z,2.00
2023-04-17T02:09:42.873Z,2.97
2023-04-17T02:12:10.505Z,3.53
2023-04-17T02:14:38.113Z,3.45
2023-04-17T02:17:06.220Z,3.47
2023-04-17T02:19:33.760Z,3.85
2023-04-17T02:22:03.624Z,4.53
2023-04-17T02:24:31.996Z,4.57
2023-04-17T02:27:02.077Z,5.10
2023-04-17T02:29:29.569Z,5.20
2023-04-17T02:31:57.671Z,6.10
2023-04-17T02:34:25.164Z,6.50
2023-04-17T02:36:54.444Z,7.47
2023-04-17T02:39:24.594Z,8.65
2023-04-17T02:41:52.442Z,8.60
2023-04-17T02:44:20.110Z,9.57
2023-04-17T02:46:47.971Z,9.15
2023-04-17T02:49:16.423Z,9.20
2023-04-17T02:51:44.179Z,10.07
2023-04-17T02:54:12.091Z,10.13
2023-04-17T02:56:39.900Z,10.85
2023-04-17T02:59:07.579Z,10.38
2023-04-17T03:01:37.917Z,10.05
2023-04-17T03:04:06.969Z,9.80
2023-04-17T03:06:37.727Z,10.82
2023-04-17T03:09:05.657Z,10.68
2023-04-17T03:11:33.539Z,9.95
2023-04-17T03:14:01.198Z,10.88
2023-04-17T03:16:29.206Z,11.75
2023-04-17T03:19:00.428Z,10.80
2023-04-17T03:21:28.402Z,12.00
2023-04-17T03:23:56.475Z,11.50
2023-04-17T03:26:24.380Z,12.38
2023-04-17T03:28:52.718Z,12.40
2023-04-17T03:31:24.563Z,11.77
2023-04-17T03:33:52.712Z,11.25
2023-04-17T03:36:20.937Z,12.43
2023-04-17T03:38:51.329Z,12.68
2023-04-17T03:41:18.992Z,12.02
2023-04-17T03:43:49.908Z,11.48
2023-04-17T03:46:17.588Z,13.13
2023-04-17T03:48:45.695Z,13.10
2023-04-17T03:51:13.481Z,12.57
2023-04-17T03:53:41.946Z,14.23
2023-04-17T03:56:12.935Z,12.85
2023-04-17T03:58:43.266Z,12.73
2023-04-17T04:01:14.856Z,12.57
2023-04-17T04:04:00.758Z,13.63
2023-04-17T04:06:30.111Z,13.60
2023-04-17T04:08:58.740Z,13.40
2023-04-17T04:11:26.414Z,13.82
2023-04-17T04:13:54.780Z,15.02
2023-04-17T04:16:22.277Z,14.38
2023-04-17T04:18:51.022Z,14.93
2023-04-17T04:21:19.138Z,14.10
2023-04-17T04:23:46.591Z,16.23
2023-04-17T04:26:17.396Z,15.40
2023-04-17T04:28:50.884Z,15.95
2023-04-17T04:31:29.832Z,14.80
2023-04-17T04:33:59.914Z,17.27
2023-04-17T04:36:30.244Z,16.88
2023-04-17T04:39:22.150Z,16.80
2023-04-17T04:41:51.157Z,17.42
2023-04-17T04:44:21.107Z,17.52
2023-04-17T04:46:53.294Z,16.58
2023-04-17T04:49:21.236Z,17.80
2023-04-17T04:51:48.806Z,16.52
2023-04-17T04:54:16.687Z,17.38
2023-04-17T04:56:50.977Z,16.65
2023-04-17T04:59:18.926Z,17.35
2023-04-17T05:01:55.630Z,17.92
2023-04-17T05:04:24.545Z,17.23
2023-04-17T05:06:57.318Z,18.13
2023-04-17T05:09:25.041Z,15.90
2023-04-17T05:11:55.683Z,16.63
2023-04-17T05:14:23.204Z,17.60
2023-04-17T05:16:51.285Z,17.00
2023-04-17T05:19:19.625Z,17.98
2023-04-17T05:24:22.359Z,15.90
2023-04-17T05:26:50.579Z,16.33
2023-04-17T05:29:18.744Z,15.70
2023-04-17T05:31:46.474Z,17.60
2023-04-17T05:34:26.443Z,15.77
2023-04-17T05:36:54.709Z,17.05
2023-04-17T05:39:23.337Z,16.48
2023-04-17T05:41:51.049Z,16.88
2023-04-17T05:44:18.870Z,17.33
2023-04-17T05:46:46.617Z,16.83
2023-04-17T05:49:14.378Z,16.35
2023-04-17T05:51:42.193Z,16.58
2023-04-17T05:54:09.934Z,16.77
2023-04-17T05:56:40.133Z,17.75
2023-04-17T05:59:07.578Z,16.15
2023-04-17T06:01:36.490Z,17.73
2023-04-17T06:04:04.627Z,17.13
2023-04-17T06:06:32.530Z,16.35
2023-04-17T06:09:00.074Z,16.98
2023-04-17T06:11:27.786Z,17.95
2023-04-17T06:13:56.117Z,17.40
2023-04-17T06:16:23.858Z,16.70
2023-04-17T06:18:51.754Z,18.23
2023-04-17T06:21:19.453Z,17.52
2023-04-17T06:23:47.162Z,16.90
2023-04-17T06:26:17.312Z,18.73
2023-04-17T06:28:44.774Z,20.08
2023-04-17T06:31:12.920Z,18.23
2023-04-17T06:33:40.637Z,20.05
2023-04-17T06:36:09.137Z,18.67
2023-04-17T06:38:43.704Z,18.15
2023-04-17T06:41:11.355Z,16.05
2023-04-17T06:43:40.743Z,19.27
2023-04-17T06:46:14.378Z,18.52
2023-04-17T06:48:41.975Z,19.08
2023-04-17T06:51:09.572Z,16.73
2023-04-17T06:53:37.140Z,19.55
2023-04-17T06:56:05.640Z,17.10
2023-04-17T06:58:33.374Z,18.45
2023-04-17T07:01:01.116Z,15.13
2023-04-17T07:03:29.160Z,17.25
2023-04-17T07:05:56.877Z,16.67
2023-04-17T07:08:24.329Z,15.10
2023-04-17T07:10:51.970Z,16.20
2023-04-17T07:13:19.434Z,16.48
2023-04-17T07:15:53.674Z,16.65
2023-04-17T07:18:22.106Z,18.27
2023-04-17T07:20:51.720Z,16.15
2023-04-17T07:23:19.481Z,12.85
2023-04-17T07:25:46.924Z,15.15
2023-04-17T07:28:14.891Z,15.73
2023-04-17T07:30:43.279Z,13.18
2023-04-17T07:33:11.370Z,16.55
2023-04-17T07:35:39.162Z,14.82
2023-04-17T07:38:06.749Z,16.63
2023-04-17T07:40:36.928Z,16.35
2023-04-17T07:43:05.026Z,17.27
2023-04-17T07:45:33.757Z,15.50
2023-04-17T07:48:01.883Z,15.70
2023-04-17T07:50:32.888Z,13.15
2023-04-17T07:53:07.349Z,14.63
2023-04-17T07:55:35.722Z,13.93
2023-04-17T07:58:06.700Z,9.90
2023-04-17T08:00:34.255Z,14.70
2023-04-17T08:03:02.460Z,11.90
2023-04-17T08:05:30.201Z,12.85
2023-04-17T08:07:57.754Z,11.60
2023-04-17T08:10:26.284Z,11.13
2023-04-17T08:12:53.841Z,9.85
2023-04-17T08:15:22.008Z,9.85
2023-04-17T08:17:50.295Z,9.73
2023-04-17T08:20:18.475Z,6.65
2023-04-17T08:22:46.817Z,5.25
2023-04-17T08:25:14.526Z,5.88
2023-04-17T08:27:43.354Z,5.30
2023-04-17T08:30:16.204Z,4.15
2023-04-17T08:32:47.253Z,3.38
2023-04-17T08:35:15.945Z,1.98
2023-04-17T08:37:47.434Z,2.10
2023-04-17T08:40:17.188Z,1.48
2023-04-17T08:42:48.137Z,1.88
2023-04-17T08:45:16.061Z,2.03
2023-04-17T08:47:44.239Z,2.55
2023-04-17T08:50:17.185Z,2.70
2023-04-17T08:52:52.211Z,2.55
2023-04-17T08:55:29.261Z,2.50
2023-04-17T08:57:59.537Z,2.42
2023-04-17T09:00:34.968Z,2.50
2023-04-17T09:03:05.164Z,2.28
2023-04-17T09:05:38.727Z,2.85
2023-04-17T09:08:09.375Z,2.70
2023-04-17T09:10:41.871Z,1.90
2023-04-17T09:13:10.202Z,2.22
2023-04-17T09:15:37.906Z,2.05
2023-04-17T09:18:05.842Z,2.58
2023-04-17T09:20:48.149Z,1.65
2023-04-17T09:23:15.569Z,2.75
2023-04-17T09:25:43.432Z,2.05
2023-04-17T09:28:13.856Z,2.65
2023-04-17T09:30:42.418Z,1.60
2023-04-17T09:33:12.062Z,2.30
2023-04-17T09:35:40.370Z,2.22
2023-04-17T09:38:08.512Z,2.08
2023-04-17T09:40:41.167Z,3.10
2023-04-17T09:43:10.837Z,3.10
2023-04-17T09:45:42.680Z,2.70
2023-04-17T09:48:14.040Z,2.70
2023-04-17T09:50:41.522Z,2.80
2023-04-17T09:53:09.451Z,3.05
2023-04-17T09:55:38.973Z,2.60
2023-04-17T09:58:07.702Z,1.55
2023-04-17T10:00:37.947Z,2.63
2023-04-17T10:03:08.074Z,2.42
2023-04-17T10:05:35.910Z,1.50
2023-04-17T10:08:03.729Z,1.45
2023-04-17T10:10:36.733Z,1.45
2023-04-17T10:13:08.377Z,1.35
2023-04-17T10:15:38.860Z,0.70
2023-04-17T10:18:25.343Z,0.80
2023-04-17T10:20:54.123Z,1.10
2023-04-17T10:23:31.771Z,1.98
2023-04-17T10:26:29.865Z,1.10
2023-04-17T10:28:58.064Z,0.82
2023-04-17T10:32:04.349Z,0.80
2023-04-17T10:34:39.256Z,0.65
2023-04-17T10:37:07.356Z,0.82
2023-04-17T10:39:54.542Z,0.70
2023-04-17T10:42:23.566Z,0.60
2023-04-17T10:44:52.153Z,0.93
2023-04-17T10:47:23.279Z,0.80
2023-04-17T10:50:00.890Z,0.98
2023-04-17T10:52:40.879Z,0.82
2023-04-17T10:55:16.452Z,0.73
2023-04-17T10:58:02.538Z,0.90
2023-04-17T11:00:50.908Z,0.90
2023-04-17T11:03:18.829Z,0.70
2023-04-17T11:05:47.278Z,0.80
2023-04-17T11:08:15.095Z,1.10
2023-04-17T11:10:42.577Z,0.95
2023-04-17T11:13:10.603Z,0.95
2023-04-17T11:15:38.209Z,0.82
2023-04-17T11:18:05.562Z,1.45
2023-04-17T11:20:37.860Z,1.15
2023-04-17T11:23:07.609Z,1.20
2023-04-17T11:25:35.209Z,1.98
2023-04-17T11:28:05.586Z,1.20
2023-04-17T11:30:35.454Z,1.77
2023-04-17T11:33:07.990Z,0.90
2023-04-17T11:35:38.333Z,1.40
2023-04-17T11:38:20.839Z,1.45
2023-04-17T11:40:54.056Z,1.50
2023-04-17T11:43:23.240Z,1.27
2023-04-17T11:45:52.960Z,1.58
2023-04-17T11:48:23.187Z,2.08
2023-04-17T11:50:58.591Z,1.30
2023-04-17T11:53:26.157Z,1.58
2023-04-17T11:56:13.213Z,1.45
2023-04-17T11:58:52.130Z,1.45
2023-04-17T12:01:21.321Z,1.35
2023-04-17T12:03:49.204Z,1.60
2023-04-17T12:06:16.968Z,1.60
2023-04-17T12:08:56.439Z,2.80
2023-04-17T12:11:25.589Z,1.95
2023-04-17T12:13:53.816Z,1.50
2023-04-17T12:16:22.418Z,1.73
2023-04-17T12:18:49.984Z,1.48
2023-04-17T12:21:18.128Z,1.63
2023-04-17T12:23:45.641Z,1.75
2023-04-17T12:26:13.458Z,1.90
2023-04-17T12:28:41.041Z,2.38
2023-04-17T12:31:08.922Z,1.67
2023-04-17T12:33:36.634Z,2.38
2023-04-17T12:36:06.973Z,1.73
2023-04-17T12:38:35.112Z,2.33
2023-04-17T12:41:02.577Z,2.20
2023-04-17T12:43:31.414Z,1.55
2023-04-17T12:45:58.852Z,2.20
2023-04-17T12:48:26.680Z,1.67
2023-04-17T12:50:54.688Z,1.10
2023-04-17T12:53:22.305Z,1.60
2023-04-17T12:55:49.850Z,1.63
2023-04-17T12:58:17.135Z,2.15
2023-04-17T13:00:44.762Z,1.58
2023-04-17T13:03:12.669Z,2.75
2023-04-17T13:05:40.525Z,1.80
2023-04-17T13:08:15.008Z,1.80
2023-04-17T13:13:11.125Z,2.20
2023-04-17T13:15:38.570Z,1.40
2023-04-17T13:18:06.143Z,1.17
2023-04-17T13:20:33.880Z,1.52
2023-04-17T13:23:01.696Z,1.48
2023-04-17T13:25:33.630Z,1.90
2023-04-17T13:28:01.163Z,1.60
2023-04-17T13:30:28.616Z,1.67
2023-04-17T13:32:56.080Z,1.30
2023-04-17T13:35:23.528Z,1.10
2023-04-17T13:37:50.969Z,1.88
2023-04-17T13:40:18.484Z,1.70
2023-04-17T13:42:46.004Z,1.75
2023-04-17T13:45:13.534Z,1.27
2023-04-17T13:47:40.972Z,1.90
2023-04-17T13:50:09.229Z,1.50
2023-04-17T13:52:36.766Z,1.30
2023-04-17T13:55:04.351Z,1.80
2023-04-17T13:57:31.762Z,1.60
2023-04-17T13:59:59.234Z,2.13
2023-04-17T14:02:26.885Z,1.38
2023-04-17T14:04:54.788Z,1.42
2023-04-17T14:07:22.751Z,1.10
2023-04-17T14:09:50.124Z,1.40
2023-04-17T14:12:20.991Z,1.67
2023-04-17T14:14:48.415Z,2.03
2023-04-17T14:17:18.882Z,1.00
2023-04-17T14:19:46.635Z,1.10
2023-04-17T14:22:14.017Z,1.33
2023-04-17T14:24:41.413Z,1.20
2023-04-17T14:27:09.264Z,1.17
2023-04-17T14:29:36.826Z,1.05
2023-04-17T14:32:04.632Z,2.47
2023-04-17T14:34:32.377Z,1.70
2023-04-17T14:36:59.790Z,1.77
2023-04-17T14:39:29.541Z,1.15
2023-04-17T14:42:02.237Z,1.25
2023-04-17T14:44:29.885Z,1.98
2023-04-17T14:46:57.566Z,1.35
2023-04-17T14:49:24.966Z,2.25
2023-04-17T14:51:52.554Z,1.20
2023-04-17T14:54:19.874Z,1.30
2023-04-17T14:56:47.322Z,1.23
2023-04-17T14:59:15.051Z,1.40
2023-04-17T15:01:42.633Z,1.00
2023-04-17T15:04:10.326Z,0.90
2023-04-17T15:06:39.367Z,1.80
2023-04-17T15:09:07.071Z,1.80
2023-04-17T15:11:34.531Z,1.70
2023-04-17T15:14:02.067Z,2.75
2023-04-17T15:16:30.954Z,1.58
2023-04-17T15:18:59.997Z,1.92
2023-04-17T15:21:27.543Z,1.30
2023-04-17T15:23:54.896Z,1.55
2023-04-17T15:26:22.971Z,1.77
2023-04-17T15:28:50.399Z,1.80
2023-04-17T15:31:17.753Z,1.52
2023-04-17T15:33:47.458Z,2.05
2023-04-17T15:36:14.782Z,1.88
2023-04-17T15:38:42.110Z,1.77
2023-04-17T15:41:10.723Z,1.70
2023-04-17T15:43:38.699Z,1.77
2023-04-17T15:46:06.100Z,1.85
2023-04-17T15:48:33.688Z,2.05
2023-04-17T15:51:03.781Z,2.15
2023-04-17T15:53:31.984Z,1.45
2023-04-17T15:55:59.258Z,2.00
2023-04-17T15:58:26.735Z,1.52
2023-04-17T16:00:54.099Z,1.70
2023-04-17T16:03:22.099Z,1.98
2023-04-17T16:05:49.616Z,3.53
2023-04-17T16:08:17.134Z,1.40
2023-04-17T16:10:44.443Z,1.33
2023-04-17T16:13:11.969Z,1.92
2023-04-17T16:15:39.283Z,2.33
2023-04-17T16:18:07.362Z,1.63
2023-04-17T16:20:35.062Z,2.00
2023-04-17T16:23:02.771Z,2.80
2023-04-17T16:25:30.197Z,2.50
2023-04-17T16:27:57.427Z,2.88
2023-04-17T16:30:24.776Z,2.63
2023-04-17T16:32:52.065Z,1.60
2023-04-17T16:35:19.492Z,1.65
2023-04-17T16:37:47.120Z,2.33
2023-04-17T16:40:14.534Z,1.88
2023-04-17T16:42:42.538Z,1.40
2023-04-17T16:45:10.370Z,2.45
2023-04-17T16:47:38.932Z,2.45
2023-04-17T16:50:09.270Z,2.33
2023-04-17T16:52:40.121Z,1.58
2023-04-17T16:55:08.298Z,1.63
2023-04-17T16:57:40.824Z,2.08
2023-04-17T17:00:11.391Z,1.60
2023-04-17T17:02:39.103Z,1.70
2023-04-17T17:05:08.124Z,2.28
2023-04-17T17:07:35.504Z,1.75
2023-04-17T17:10:02.897Z,1.67
2023-04-17T17:12:30.486Z,2.35
2023-04-17T17:14:58.305Z,2.00
2023-04-17T17:17:25.772Z,3.30
2023-04-17T17:19:53.334Z,2.05
2023-04-17T17:22:20.762Z,2.20
2023-04-17T17:24:48.416Z,1.92
2023-04-17T17:27:15.960Z,2.38
2023-04-17T17:29:43.562Z,2.20
2023-04-17T17:32:11.115Z,1.85
2023-04-17T17:34:38.752Z,2.88
2023-04-17T17:37:06.004Z,2.75
2023-04-17T17:39:33.496Z,2.70
2023-04-17T17:42:03.076Z,2.38
2023-04-17T17:44:30.481Z,2.40
2023-04-17T17:46:58.017Z,3.45
2023-04-17T17:49:25.377Z,2.85
2023-04-17T17:51:53.488Z,2.95
2023-04-17T17:54:21.256Z,3.70
2023-04-17T17:56:49.402Z,3.40
2023-04-17T17:59:17.234Z,3.30
2023-04-17T18:01:45.345Z,4.80
2023-04-17T18:04:13.884Z,4.80
2023-04-17T18:06:42.493Z,4.30
2023-04-17T18:09:10.490Z,4.35
2023-04-17T18:11:44.619Z,4.35
2023-04-17T18:14:15.434Z,4.07
2023-04-17T18:16:44.497Z,5.18
2023-04-17T18:19:12.394Z,3.80
2023-04-17T18:21:40.332Z,3.17
2023-04-17T18:24:08.877Z,4.72
2023-04-17T18:26:36.698Z,4.57
2023-04-17T18:29:07.876Z,4.88
2023-04-17T18:31:35.772Z,4.63
2023-04-17T18:34:03.672Z,4.60
2023-04-17T18:36:35.846Z,5.07
2023-04-17T18:39:03.841Z,4.85
2023-04-17T18:41:32.062Z,3.75
2023-04-17T18:43:59.844Z,5.32
2023-04-17T18:46:33.314Z,6.00
2023-04-17T18:49:00.975Z,4.82
2023-04-17T18:51:28.717Z,5.20
2023-04-17T18:53:56.906Z,5.95
2023-04-17T18:56:24.734Z,6.18
2023-04-17T18:58:52.858Z,5.90
2023-04-17T19:01:20.955Z,7.38
2023-04-17T19:03:49.103Z,5.35
2023-04-17T19:06:19.014Z,7.15
2023-04-17T19:08:46.787Z,6.78
2023-04-17T19:11:14.860Z,6.65
2023-04-17T19:13:45.110Z,5.95
2023-04-17T19:16:12.855Z,6.00
2023-04-17T19:18:41.020Z,6.78
2023-04-17T19:21:08.875Z,7.25
2023-04-17T19:23:39.550Z,7.25
2023-04-17T19:26:07.461Z,7.47
2023-04-17T19:28:35.473Z,6.70
2023-04-17T19:31:03.811Z,7.93
2023-04-17T19:33:33.519Z,6.47
2023-04-17T19:36:04.955Z,7.25
2023-04-17T19:38:32.997Z,7.55
2023-04-17T19:41:20.053Z,8.15
2023-04-17T19:43:54.400Z,6.93
2023-04-17T19:46:23.625Z,7.78
2023-04-17T19:48:52.906Z,7.97
2023-04-17T19:51:20.872Z,7.93
2023-04-17T19:53:48.926Z,8.57
2023-04-17T19:56:16.810Z,6.85
2023-04-17T19:58:44.676Z,7.35
2023-04-17T20:01:12.600Z,7.63
2023-04-17T20:03:42.569Z,6.82
2023-04-17T20:06:10.774Z,5.95
2023-04-17T20:08:38.711Z,7.05
2023-04-17T20:11:07.023Z,7.32
2023-04-17T20:13:34.864Z,7.20
2023-04-17T20:16:02.837Z,7.30
2023-04-17T20:18:30.776Z,7.95
2023-04-17T20:20:58.790Z,6.95
2023-04-17T20:23:26.963Z,8.15
2023-04-17T20:25:55.179Z,8.95
2023-04-17T20:28:23.322Z,8.23
2023-04-17T20:30:51.208Z,9.35
2023-04-17T20:33:21.741Z,9.50
2023-04-17T20:35:49.744Z,8.18
2023-04-17T20:38:17.616Z,8.68
2023-04-17T20:40:45.745Z,9.85
2023-04-17T20:43:13.756Z,8.88
2023-04-17T20:45:42.056Z,9.77
2023-04-17T20:48:10.499Z,9.13
2023-04-17T20:50:38.353Z,10.73
2023-04-17T20:53:06.326Z,10.25
2023-04-17T20:55:34.524Z,10.70
2023-04-17T20:58:02.582Z,10.20
2023-04-17T21:00:30.952Z,10.57
2023-04-17T21:02:58.877Z,10.13
2023-04-17T21:05:27.378Z,9.07
2023-04-17T21:07:55.345Z,12.05
2023-04-17T21:10:23.452Z,11.77
2023-04-17T21:12:51.780Z,12.68
2023-04-17T21:15:19.966Z,11.20
2023-04-17T21:17:48.263Z,11.70
2023-04-17T21:20:19.193Z,12.63
2023-04-17T21:22:47.605Z,11.10
2023-04-17T21:25:15.859Z,12.18
2023-04-17T21:27:44.113Z,10.95
2023-04-17T21:30:12.680Z,12.32
2023-04-17T21:32:42.534Z,12.73
2023-04-17T21:35:11.413Z,10.88
2023-04-17T21:37:39.513Z,10.57
2023-04-17T21:40:08.081Z,11.50
2023-04-17T21:42:35.734Z,10.32
2023-04-17T21:45:03.432Z,11.70
2023-04-17T21:47:31.463Z,10.77
2023-04-17T21:50:00.471Z,12.10
2023-04-17T21:52:28.051Z,12.30
2023-04-17T21:55:03.130Z,13.52
2023-04-17T21:57:34.890Z,12.52
2023-04-17T22:00:04.540Z,11.70
2023-04-17T22:02:34.402Z,11.48
2023-04-17T22:05:02.089Z,11.13
2023-04-17T22:07:30.146Z,13.27
2023-04-17T22:10:00.332Z,11.75
2023-04-17T22:12:27.988Z,14.73
2023-04-17T22:14:55.939Z,11.30
2023-04-17T22:17:23.799Z,12.75
2023-04-17T22:19:51.573Z,12.38
2023-04-17T22:22:19.333Z,11.20
2023-04-17T22:24:46.773Z,12.48
2023-04-17T22:27:14.439Z,13.98
2023-04-17T22:29:42.101Z,14.27
2023-04-17T22:32:09.563Z,13.20
2023-04-17T22:34:37.377Z,13.07
2023-04-17T22:37:05.181Z,12.63
2023-04-17T22:39:32.649Z,11.25
2023-04-17T22:42:01.225Z,11.38
2023-04-17T22:44:28.813Z,11.35
2023-04-17T22:46:56.719Z,12.38
2023-04-17T22:49:24.517Z,13.77
2023-04-17T22:51:52.294Z,13.65
2023-04-17T22:54:23.022Z,10.85
2023-04-17T22:56:51.217Z,9.95
2023-04-17T22:59:18.590Z,10.90
2023-04-17T23:01:46.516Z,12.00
2023-04-17T23:04:14.208Z,10.75
2023-04-17T23:06:42.306Z,10.95
2023-04-17T23:09:10.500Z,10.68
2023-04-17T23:11:38.274Z,11.15
2023-04-17T23:14:05.977Z,10.65
2023-04-17T23:16:33.737Z,11.07
2023-04-17T23:19:01.370Z,10.85
2023-04-17T23:21:28.948Z,11.43
2023-04-17T23:23:56.555Z,11.75
2023-04-17T23:26:24.306Z,13.00
2023-04-17T23:28:51.916Z,11.18
2023-04-17T23:31:19.675Z,11.55
2023-04-17T23:33:47.193Z,12.55
2023-04-17T23:36:15.008Z,11.52
2023-04-17T23:38:42.686Z,10.95
2023-04-17T23:41:10.296Z,12.18
2023-04-17T23:43:38.203Z,11.52
2023-04-17T23:46:06.393Z,13.82
2023-04-17T23:48:34.140Z,11.68
2023-04-17T23:51:01.975Z,13.80
2023-04-17T23:53:29.667Z,13.32
2023-04-17T23:55:57.406Z,12.43
2023-04-17T23:58:25.225Z,14.75
